sensor_id;sensor_type;location;lat;lon;timestamp;P1;durP1;ratioP1;P2;durP2;ratioP2
11655;SDS011;5884;43.618;1.438;2022-09-01T04:46:44;9.80;;;7.00;;
11655;SDS011;5884;43.618;1.438;2022-09-01T04:49:15;14.37;;;7.33;;
11655;SDS011;5884;43.618;1.438;2022-09-01T04:51:47;11.53;;;7.57;;
11655;SDS011;5884;43.618;1.438;2022-09-01T04:54:18;13.70;;;7.27;;
11655;SDS011;5884;43.618;1.438;2022-09-01T04:56:47;12.33;;;7.30;;
11655;SDS011;5884;43.618;1.438;2022-09-01T04:59:17;12.07;;;7.47;;
11655;SDS011;5884;43.618;1.438;2022-09-01T05:01:48;10.43;;;7.63;;
11655;SDS011;5884;43.618;1.438;2022-09-01T05:04:19;10.07;;;7.23;;
11655;SDS011;5884;43.618;1.438;2022-09-01T05:06:50;12.83;;;7.57;;
11655;SDS011;5884;43.618;1.438;2022-09-01T05:09:25;16.27;;;7.90;;
11655;SDS011;5884;43.618;1.438;2022-09-01T05:11:54;10.93;;;7.57;;
11655;SDS011;5884;43.618;1.438;2022-09-01T05:14:35;12.40;;;7.30;;
11655;SDS011;5884;43.618;1.438;2022-09-01T05:17:03;11.53;;;7.47;;
11655;SDS011;5884;43.618;1.438;2022-09-01T05:19:34;17.03;;;7.70;;
11655;SDS011;5884;43.618;1.438;2022-09-01T05:22:02;12.83;;;7.30;;
11655;SDS011;5884;43.618;1.438;2022-09-01T05:24:31;10.93;;;7.37;;
11655;SDS011;5884;43.618;1.438;2022-09-01T05:26:59;16.10;;;7.80;;
11655;SDS011;5884;43.618;1.438;2022-09-01T05:29:27;13.93;;;8.40;;
11655;SDS011;5884;43.618;1.438;2022-09-01T05:31:54;12.33;;;8.00;;
11655;SDS011;5884;43.618;1.438;2022-09-01T05:34:24;11.90;;;7.90;;
11655;SDS011;5884;43.618;1.438;2022-09-01T05:36:54;12.40;;;8.10;;
11655;SDS011;5884;43.618;1.438;2022-09-01T05:39:24;9.73;;;7.67;;
11655;SDS011;5884;43.618;1.438;2022-09-01T05:41:52;12.80;;;8.20;;
11655;SDS011;5884;43.618;1.438;2022-09-01T05:44:21;13.93;;;7.80;;
11655;SDS011;5884;43.618;1.438;2022-09-01T05:46:48;10.33;;;7.87;;
11655;SDS011;5884;43.618;1.438;2022-09-01T05:49:17;10.57;;;8.37;;
11655;SDS011;5884;43.618;1.438;2022-09-01T05:51:47;12.83;;;8.00;;
11655;SDS011;5884;43.618;1.438;2022-09-01T05:54:17;14.97;;;8.80;;
11655;SDS011;5884;43.618;1.438;2022-09-01T05:56:47;15.20;;;8.50;;
11655;SDS011;5884;43.618;1.438;2022-09-01T05:59:14;12.53;;;9.30;;
11655;SDS011;5884;43.618;1.438;2022-09-01T06:01:44;12.83;;;8.67;;
11655;SDS011;5884;43.618;1.438;2022-09-01T06:04:11;13.50;;;8.93;;
11655;SDS011;5884;43.618;1.438;2022-09-01T06:06:41;14.27;;;8.33;;
11655;SDS011;5884;43.618;1.438;2022-09-01T06:09:14;15.50;;;8.70;;
11655;SDS011;5884;43.618;1.438;2022-09-01T06:11:43;11.67;;;8.60;;
11655;SDS011;5884;43.618;1.438;2022-09-01T06:14:11;17.67;;;7.90;;
11655;SDS011;5884;43.618;1.438;2022-09-01T06:16:40;14.27;;;8.33;;
11655;SDS011;5884;43.618;1.438;2022-09-01T06:19:07;14.77;;;8.57;;
11655;SDS011;5884;43.618;1.438;2022-09-01T06:21:37;13.97;;;8.57;;
11655;SDS011;5884;43.618;1.438;2022-09-01T06:24:05;15.97;;;8.63;;
11655;SDS011;5884;43.618;1.438;2022-09-01T06:26:35;17.93;;;8.10;;
11655;SDS011;5884;43.618;1.438;2022-09-01T06:29:05;14.37;;;8.57;;
11655;SDS011;5884;43.618;1.438;2022-09-01T06:31:39;11.40;;;8.20;;
11655;SDS011;5884;43.618;1.438;2022-09-01T06:34:08;13.53;;;8.20;;
11655;SDS011;5884;43.618;1.438;2022-09-01T06:36:41;12.23;;;8.03;;
11655;SDS011;5884;43.618;1.438;2022-09-01T06:39:10;13.33;;;8.00;;
11655;SDS011;5884;43.618;1.438;2022-09-01T06:41:45;16.47;;;8.20;;
11655;SDS011;5884;43.618;1.438;2022-09-01T06:44:16;14.23;;;8.20;;
11655;SDS011;5884;43.618;1.438;2022-09-01T06:46:46;11.43;;;7.57;;
11655;SDS011;5884;43.618;1.438;2022-09-01T06:49:13;12.00;;;7.47;;
11655;SDS011;5884;43.618;1.438;2022-09-01T06:51:41;14.87;;;7.57;;
11655;SDS011;5884;43.618;1.438;2022-09-01T06:54:08;15.80;;;7.83;;
11655;SDS011;5884;43.618;1.438;2022-09-01T06:56:38;13.67;;;7.77;;
11655;SDS011;5884;43.618;1.438;2022-09-01T06:59:07;16.53;;;7.93;;
11655;SDS011;5884;43.618;1.438;2022-09-01T07:01:36;11.53;;;8.00;;
11655;SDS011;5884;43.618;1.438;2022-09-01T07:04:03;10.87;;;8.00;;
11655;SDS011;5884;43.618;1.438;2022-09-01T07:06:31;12.57;;;7.70;;
11655;SDS011;5884;43.618;1.438;2022-09-01T07:08:59;13.83;;;7.37;;
11655;SDS011;5884;43.618;1.438;2022-09-01T07:11:28;11.50;;;7.83;;
11655;SDS011;5884;43.618;1.438;2022-09-01T07:13:58;16.97;;;7.57;;
11655;SDS011;5884;43.618;1.438;2022-09-01T07:16:30;10.30;;;6.37;;
11655;SDS011;5884;43.618;1.438;2022-09-01T07:19:04;9.70;;;6.50;;
11655;SDS011;5884;43.618;1.438;2022-09-01T07:21:39;22.03;;;6.70;;
11655;SDS011;5884;43.618;1.438;2022-09-01T07:24:07;7.70;;;5.67;;
11655;SDS011;5884;43.618;1.438;2022-09-01T07:26:36;11.00;;;6.23;;
11655;SDS011;5884;43.618;1.438;2022-09-01T07:29:05;10.70;;;6.63;;
11655;SDS011;5884;43.618;1.438;2022-09-01T07:31:35;13.70;;;6.70;;
11655;SDS011;5884;43.618;1.438;2022-09-01T07:34:07;9.83;;;6.13;;
11655;SDS011;5884;43.618;1.438;2022-09-01T07:36:37;12.00;;;6.43;;
11655;SDS011;5884;43.618;1.438;2022-09-01T07:39:06;8.50;;;6.77;;
11655;SDS011;5884;43.618;1.438;2022-09-01T07:41:35;9.83;;;6.23;;
11655;SDS011;5884;43.618;1.438;2022-09-01T07:44:03;10.13;;;6.23;;
11655;SDS011;5884;43.618;1.438;2022-09-01T07:46:35;9.07;;;6.57;;
11655;SDS011;5884;43.618;1.438;2022-09-01T07:49:03;11.97;;;6.13;;
11655;SDS011;5884;43.618;1.438;2022-09-01T07:51:30;9.87;;;6.57;;
11655;SDS011;5884;43.618;1.438;2022-09-01T07:53:59;10.87;;;6.10;;
11655;SDS011;5884;43.618;1.438;2022-09-01T07:56:27;8.83;;;6.67;;
11655;SDS011;5884;43.618;1.438;2022-09-01T07:58:55;8.13;;;6.53;;
11655;SDS011;5884;43.618;1.438;2022-09-01T08:01:24;11.27;;;6.80;;
11655;SDS011;5884;43.618;1.438;2022-09-01T08:03:55;12.93;;;6.87;;
11655;SDS011;5884;43.618;1.438;2022-09-01T08:06:26;9.97;;;6.73;;
11655;SDS011;5884;43.618;1.438;2022-09-01T08:08:55;12.73;;;6.60;;
11655;SDS011;5884;43.618;1.438;2022-09-01T08:11:25;13.00;;;6.50;;
11655;SDS011;5884;43.618;1.438;2022-09-01T08:13:55;10.57;;;6.70;;
11655;SDS011;5884;43.618;1.438;2022-09-01T08:16:25;9.60;;;6.47;;
11655;SDS011;5884;43.618;1.438;2022-09-01T08:18:56;15.17;;;6.37;;
11655;SDS011;5884;43.618;1.438;2022-09-01T08:21:24;11.90;;;6.63;;
11655;SDS011;5884;43.618;1.438;2022-09-01T08:23:53;9.87;;;6.83;;
11655;SDS011;5884;43.618;1.438;2022-09-01T08:26:22;13.20;;;6.30;;
11655;SDS011;5884;43.618;1.438;2022-09-01T08:28:51;12.50;;;7.23;;
11655;SDS011;5884;43.618;1.438;2022-09-01T08:31:20;10.97;;;6.70;;
11655;SDS011;5884;43.618;1.438;2022-09-01T08:33:51;13.17;;;7.17;;
11655;SDS011;5884;43.618;1.438;2022-09-01T08:36:20;13.27;;;7.47;;
11655;SDS011;5884;43.618;1.438;2022-09-01T08:38:48;12.37;;;7.03;;
11655;SDS011;5884;43.618;1.438;2022-09-01T08:41:16;15.67;;;6.70;;
11655;SDS011;5884;43.618;1.438;2022-09-01T08:43:55;11.13;;;6.23;;
11655;SDS011;5884;43.618;1.438;2022-09-01T08:46:35;9.53;;;6.40;;
11655;SDS011;5884;43.618;1.438;2022-09-01T08:49:11;11.00;;;6.27;;
11655;SDS011;5884;43.618;1.438;2022-09-01T08:51:45;11.17;;;6.40;;
11655;SDS011;5884;43.618;1.438;2022-09-01T08:54:19;8.90;;;6.07;;
11655;SDS011;5884;43.618;1.438;2022-09-01T08:56:51;11.90;;;7.03;;
11655;SDS011;5884;43.618;1.438;2022-09-01T08:59:22;8.93;;;6.40;;
11655;SDS011;5884;43.618;1.438;2022-09-01T09:01:52;13.17;;;6.80;;
11655;SDS011;5884;43.618;1.438;2022-09-01T09:07:28;10.13;;;6.63;;
11655;SDS011;5884;43.618;1.438;2022-09-01T09:10:09;11.53;;;6.40;;
11655;SDS011;5884;43.618;1.438;2022-09-01T09:12:47;10.77;;;6.10;;
11655;SDS011;5884;43.618;1.438;2022-09-01T09:15:25;8.83;;;6.33;;
11655;SDS011;5884;43.618;1.438;2022-09-01T09:18:07;9.63;;;6.50;;
11655;SDS011;5884;43.618;1.438;2022-09-01T09:20:44;10.00;;;5.97;;
11655;SDS011;5884;43.618;1.438;2022-09-01T09:23:15;11.73;;;6.90;;
11655;SDS011;5884;43.618;1.438;2022-09-01T09:25:50;9.63;;;6.00;;
11655;SDS011;5884;43.618;1.438;2022-09-01T09:28:17;10.33;;;6.37;;
11655;SDS011;5884;43.618;1.438;2022-09-01T09:30:45;12.87;;;6.13;;
11655;SDS011;5884;43.618;1.438;2022-09-01T09:33:31;15.40;;;7.00;;
11655;SDS011;5884;43.618;1.438;2022-09-01T09:36:17;12.27;;;6.00;;
11655;SDS011;5884;43.618;1.438;2022-09-01T09:38:52;11.43;;;5.83;;
11655;SDS011;5884;43.618;1.438;2022-09-01T09:41:35;10.33;;;6.60;;
11655;SDS011;5884;43.618;1.438;2022-09-01T09:44:06;9.73;;;5.70;;
11655;SDS011;5884;43.618;1.438;2022-09-01T09:46:46;8.53;;;6.60;;
11655;SDS011;5884;43.618;1.438;2022-09-01T09:49:15;7.93;;;6.50;;
11655;SDS011;5884;43.618;1.438;2022-09-01T09:51:49;11.90;;;6.23;;
11655;SDS011;5884;43.618;1.438;2022-09-01T09:54:24;12.57;;;6.97;;
11655;SDS011;5884;43.618;1.438;2022-09-01T09:57:04;9.63;;;6.30;;
11655;SDS011;5884;43.618;1.438;2022-09-01T09:59:38;11.20;;;6.70;;
11655;SDS011;5884;43.618;1.438;2022-09-01T10:02:23;9.67;;;6.57;;
11655;SDS011;5884;43.618;1.438;2022-09-01T10:04:56;16.17;;;7.50;;
11655;SDS011;5884;43.618;1.438;2022-09-01T10:07:27;15.60;;;6.20;;
11655;SDS011;5884;43.618;1.438;2022-09-01T10:10:00;10.80;;;6.40;;
11655;SDS011;5884;43.618;1.438;2022-09-01T10:12:30;8.00;;;6.00;;
11655;SDS011;5884;43.618;1.438;2022-09-01T10:14:59;11.27;;;7.03;;
11655;SDS011;5884;43.618;1.438;2022-09-01T10:17:33;9.13;;;6.40;;
11655;SDS011;5884;43.618;1.438;2022-09-01T10:20:04;9.77;;;5.83;;
11655;SDS011;5884;43.618;1.438;2022-09-01T10:22:35;8.00;;;6.50;;
11655;SDS011;5884;43.618;1.438;2022-09-01T10:25:06;8.10;;;6.50;;
11655;SDS011;5884;43.618;1.438;2022-09-01T10:27:40;11.47;;;6.67;;
11655;SDS011;5884;43.618;1.438;2022-09-01T10:30:12;8.13;;;6.23;;
11655;SDS011;5884;43.618;1.438;2022-09-01T10:32:42;10.07;;;6.63;;
11655;SDS011;5884;43.618;1.438;2022-09-01T10:35:13;12.20;;;6.40;;
11655;SDS011;5884;43.618;1.438;2022-09-01T10:37:47;12.20;;;6.63;;
11655;SDS011;5884;43.618;1.438;2022-09-01T10:40:20;12.27;;;6.60;;
11655;SDS011;5884;43.618;1.438;2022-09-01T10:55:37;10.60;;;6.30;;
11655;SDS011;5884;43.618;1.438;2022-09-01T10:58:32;8.10;;;5.80;;
11655;SDS011;5884;43.618;1.438;2022-09-01T11:01:15;9.17;;;6.10;;
11655;SDS011;5884;43.618;1.438;2022-09-01T11:06:33;11.57;;;6.10;;
11655;SDS011;5884;43.618;1.438;2022-09-01T11:09:28;8.60;;;5.83;;
11655;SDS011;5884;43.618;1.438;2022-09-01T11:12:07;9.47;;;6.00;;
11655;SDS011;5884;43.618;1.438;2022-09-01T11:18:02;14.17;;;6.73;;
11655;SDS011;5884;43.618;1.438;2022-09-01T11:20:36;10.23;;;6.37;;
11655;SDS011;5884;43.618;1.438;2022-09-01T11:23:06;10.70;;;5.80;;
11655;SDS011;5884;43.618;1.438;2022-09-01T11:25:40;10.47;;;6.43;;
11655;SDS011;5884;43.618;1.438;2022-09-01T11:31:15;9.20;;;6.00;;
11655;SDS011;5884;43.618;1.438;2022-09-01T11:34:15;17.70;;;6.43;;
11655;SDS011;5884;43.618;1.438;2022-09-01T11:36:52;12.00;;;6.17;;
11655;SDS011;5884;43.618;1.438;2022-09-01T11:39:30;9.80;;;6.50;;
11655;SDS011;5884;43.618;1.438;2022-09-01T11:42:10;8.27;;;5.77;;
11655;SDS011;5884;43.618;1.438;2022-09-01T11:44:46;9.57;;;6.13;;
11655;SDS011;5884;43.618;1.438;2022-09-01T11:47:18;14.27;;;6.57;;
11655;SDS011;5884;43.618;1.438;2022-09-01T11:49:51;10.07;;;6.33;;
11655;SDS011;5884;43.618;1.438;2022-09-01T11:52:23;13.93;;;6.10;;
11655;SDS011;5884;43.618;1.438;2022-09-01T11:54:52;10.63;;;6.17;;
11655;SDS011;5884;43.618;1.438;2022-09-01T11:57:20;8.57;;;6.37;;
11655;SDS011;5884;43.618;1.438;2022-09-01T11:59:56;8.40;;;5.80;;
11655;SDS011;5884;43.618;1.438;2022-09-01T12:02:26;7.13;;;5.50;;
11655;SDS011;5884;43.618;1.438;2022-09-01T12:04:57;7.37;;;5.90;;
11655;SDS011;5884;43.618;1.438;2022-09-01T12:07:28;9.50;;;6.40;;
11655;SDS011;5884;43.618;1.438;2022-09-01T12:10:12;9.30;;;5.87;;
11655;SDS011;5884;43.618;1.438;2022-09-01T12:12:44;9.97;;;6.13;;
11655;SDS011;5884;43.618;1.438;2022-09-01T12:15:17;9.07;;;5.60;;
11655;SDS011;5884;43.618;1.438;2022-09-01T12:17:48;10.60;;;5.67;;
11655;SDS011;5884;43.618;1.438;2022-09-01T12:20:20;10.33;;;5.93;;
11655;SDS011;5884;43.618;1.438;2022-09-01T12:22:51;9.07;;;5.80;;
11655;SDS011;5884;43.618;1.438;2022-09-01T12:25:19;11.13;;;5.77;;
11655;SDS011;5884;43.618;1.438;2022-09-01T12:27:49;8.43;;;5.50;;
11655;SDS011;5884;43.618;1.438;2022-09-01T12:30:19;8.63;;;5.60;;
11655;SDS011;5884;43.618;1.438;2022-09-01T12:32:50;9.87;;;5.70;;
11655;SDS011;5884;43.618;1.438;2022-09-01T12:35:19;7.47;;;5.63;;
11655;SDS011;5884;43.618;1.438;2022-09-01T12:37:49;6.90;;;5.07;;
11655;SDS011;5884;43.618;1.438;2022-09-01T12:40:21;9.97;;;5.70;;
11655;SDS011;5884;43.618;1.438;2022-09-01T12:42:51;9.40;;;5.80;;
11655;SDS011;5884;43.618;1.438;2022-09-01T12:45:36;10.53;;;5.60;;
11655;SDS011;5884;43.618;1.438;2022-09-01T12:48:06;10.83;;;5.53;;
11655;SDS011;5884;43.618;1.438;2022-09-01T12:50:49;10.20;;;5.87;;
11655;SDS011;5884;43.618;1.438;2022-09-01T12:53:22;8.90;;;5.60;;
11655;SDS011;5884;43.618;1.438;2022-09-01T12:55:58;7.93;;;5.20;;
11655;SDS011;5884;43.618;1.438;2022-09-01T12:58:30;6.57;;;5.13;;
11655;SDS011;5884;43.618;1.438;2022-09-01T13:01:00;9.37;;;5.07;;
11655;SDS011;5884;43.618;1.438;2022-09-01T13:03:32;10.07;;;5.00;;
11655;SDS011;5884;43.618;1.438;2022-09-01T13:06:01;11.10;;;4.83;;
11655;SDS011;5884;43.618;1.438;2022-09-01T13:08:30;6.27;;;4.93;;
11655;SDS011;5884;43.618;1.438;2022-09-01T13:11:01;9.60;;;5.23;;
11655;SDS011;5884;43.618;1.438;2022-09-01T13:13:31;7.57;;;5.20;;
11655;SDS011;5884;43.618;1.438;2022-09-01T13:16:02;6.87;;;5.33;;
11655;SDS011;5884;43.618;1.438;2022-09-01T13:18:34;6.13;;;4.40;;
11655;SDS011;5884;43.618;1.438;2022-09-01T13:21:01;6.03;;;5.00;;
11655;SDS011;5884;43.618;1.438;2022-09-01T13:23:29;8.77;;;4.85;;
11655;SDS011;5884;43.618;1.438;2022-09-01T13:25:57;8.97;;;4.97;;
11655;SDS011;5884;43.618;1.438;2022-09-01T13:28:24;9.35;;;5.13;;
11655;SDS011;5884;43.618;1.438;2022-09-01T13:30:53;8.35;;;4.72;;
11655;SDS011;5884;43.618;1.438;2022-09-01T13:33:25;10.57;;;6.32;;
11655;SDS011;5884;43.618;1.438;2022-09-01T13:35:53;7.18;;;4.97;;
11655;SDS011;5884;43.618;1.438;2022-09-01T13:38:21;6.97;;;4.50;;
11655;SDS011;5884;43.618;1.438;2022-09-01T13:40:49;7.00;;;4.32;;
11655;SDS011;5884;43.618;1.438;2022-09-01T13:43:18;6.85;;;4.47;;
11655;SDS011;5884;43.618;1.438;2022-09-01T13:45:47;10.48;;;5.47;;
11655;SDS011;5884;43.618;1.438;2022-09-01T13:48:15;7.05;;;4.78;;
11655;SDS011;5884;43.618;1.438;2022-09-01T13:50:44;12.25;;;4.97;;
11655;SDS011;5884;43.618;1.438;2022-09-01T13:53:14;7.63;;;4.90;;
11655;SDS011;5884;43.618;1.438;2022-09-01T13:55:42;9.95;;;5.20;;
11655;SDS011;5884;43.618;1.438;2022-09-01T13:58:10;10.32;;;5.53;;
11655;SDS011;5884;43.618;1.438;2022-09-01T14:00:39;7.07;;;4.70;;
11655;SDS011;5884;43.618;1.438;2022-09-01T14:03:11;5.65;;;4.90;;
11655;SDS011;5884;43.618;1.438;2022-09-01T14:05:42;6.60;;;4.43;;
11655;SDS011;5884;43.618;1.438;2022-09-01T14:08:13;9.73;;;5.28;;
11655;SDS011;5884;43.618;1.438;2022-09-01T14:10:43;7.00;;;4.90;;
11655;SDS011;5884;43.618;1.438;2022-09-01T14:13:15;8.23;;;4.90;;
11655;SDS011;5884;43.618;1.438;2022-09-01T14:15:43;6.80;;;4.85;;
11655;SDS011;5884;43.618;1.438;2022-09-01T14:18:11;9.55;;;4.93;;
11655;SDS011;5884;43.618;1.438;2022-09-01T14:20:41;9.07;;;4.95;;
11655;SDS011;5884;43.618;1.438;2022-09-01T14:23:12;6.18;;;4.43;;
11655;SDS011;5884;43.618;1.438;2022-09-01T14:25:41;7.70;;;4.45;;
11655;SDS011;5884;43.618;1.438;2022-09-01T14:28:10;7.63;;;4.43;;
11655;SDS011;5884;43.618;1.438;2022-09-01T14:30:38;6.97;;;4.72;;
11655;SDS011;5884;43.618;1.438;2022-09-01T14:33:07;8.00;;;4.60;;
11655;SDS011;5884;43.618;1.438;2022-09-01T14:35:36;9.00;;;4.38;;
11655;SDS011;5884;43.618;1.438;2022-09-01T14:38:06;7.88;;;5.00;;
11655;SDS011;5884;43.618;1.438;2022-09-01T14:40:34;13.05;;;4.70;;
11655;SDS011;5884;43.618;1.438;2022-09-01T14:43:03;12.10;;;4.18;;
11655;SDS011;5884;43.618;1.438;2022-09-01T14:45:33;9.48;;;4.80;;
11655;SDS011;5884;43.618;1.438;2022-09-01T14:48:02;7.18;;;4.35;;
11655;SDS011;5884;43.618;1.438;2022-09-01T14:50:30;7.22;;;4.30;;
11655;SDS011;5884;43.618;1.438;2022-09-01T14:52:59;7.03;;;4.55;;
11655;SDS011;5884;43.618;1.438;2022-09-01T14:55:29;6.53;;;4.60;;
11655;SDS011;5884;43.618;1.438;2022-09-01T14:57:57;7.80;;;4.53;;
11655;SDS011;5884;43.618;1.438;2022-09-01T15:00:25;8.13;;;4.63;;
11655;SDS011;5884;43.618;1.438;2022-09-01T15:02:54;8.52;;;4.40;;
11655;SDS011;5884;43.618;1.438;2022-09-01T15:05:22;8.43;;;4.68;;
11655;SDS011;5884;43.618;1.438;2022-09-01T15:07:50;7.13;;;4.13;;
11655;SDS011;5884;43.618;1.438;2022-09-01T15:10:19;8.68;;;4.30;;
11655;SDS011;5884;43.618;1.438;2022-09-01T15:12:49;7.88;;;4.40;;
11655;SDS011;5884;43.618;1.438;2022-09-01T15:15:17;6.38;;;4.07;;
11655;SDS011;5884;43.618;1.438;2022-09-01T15:17:44;8.10;;;4.22;;
11655;SDS011;5884;43.618;1.438;2022-09-01T15:20:11;6.70;;;4.85;;
11655;SDS011;5884;43.618;1.438;2022-09-01T15:22:56;5.22;;;4.22;;
11655;SDS011;5884;43.618;1.438;2022-09-01T15:25:23;10.45;;;4.40;;
11655;SDS011;5884;43.618;1.438;2022-09-01T15:27:52;9.20;;;5.00;;
11655;SDS011;5884;43.618;1.438;2022-09-01T15:30:19;6.43;;;4.32;;
11655;SDS011;5884;43.618;1.438;2022-09-01T15:32:48;7.78;;;4.25;;
11655;SDS011;5884;43.618;1.438;2022-09-01T15:35:18;8.00;;;4.28;;
11655;SDS011;5884;43.618;1.438;2022-09-01T15:37:46;6.43;;;4.05;;
11655;SDS011;5884;43.618;1.438;2022-09-01T15:40:15;7.88;;;4.05;;
11655;SDS011;5884;43.618;1.438;2022-09-01T15:42:43;6.80;;;4.30;;
11655;SDS011;5884;43.618;1.438;2022-09-01T15:45:13;9.77;;;4.43;;
11655;SDS011;5884;43.618;1.438;2022-09-01T15:47:43;9.05;;;4.00;;
11655;SDS011;5884;43.618;1.438;2022-09-01T15:50:12;14.40;;;4.35;;
11655;SDS011;5884;43.618;1.438;2022-09-01T15:52:45;8.77;;;4.57;;
11655;SDS011;5884;43.618;1.438;2022-09-01T15:55:16;8.55;;;4.10;;
11655;SDS011;5884;43.618;1.438;2022-09-01T15:57:45;8.93;;;3.83;;
11655;SDS011;5884;43.618;1.438;2022-09-01T16:00:14;5.60;;;4.00;;
11655;SDS011;5884;43.618;1.438;2022-09-01T16:02:42;6.97;;;3.75;;
11655;SDS011;5884;43.618;1.438;2022-09-01T16:05:10;8.05;;;3.67;;
11655;SDS011;5884;43.618;1.438;2022-09-01T16:07:38;7.63;;;4.20;;
11655;SDS011;5884;43.618;1.438;2022-09-01T16:10:06;5.97;;;3.72;;
11655;SDS011;5884;43.618;1.438;2022-09-01T16:12:36;6.18;;;3.72;;
11655;SDS011;5884;43.618;1.438;2022-09-01T16:15:08;8.02;;;3.38;;
11655;SDS011;5884;43.618;1.438;2022-09-01T16:17:43;6.38;;;3.50;;
11655;SDS011;5884;43.618;1.438;2022-09-01T16:20:48;8.05;;;3.70;;
11655;SDS011;5884;43.618;1.438;2022-09-01T16:23:26;6.97;;;3.90;;
11655;SDS011;5884;43.618;1.438;2022-09-01T16:26:01;9.40;;;3.80;;
11655;SDS011;5884;43.618;1.438;2022-09-01T16:28:29;5.53;;;3.58;;
11655;SDS011;5884;43.618;1.438;2022-09-01T16:31:00;6.50;;;3.83;;
11655;SDS011;5884;43.618;1.438;2022-09-01T16:33:33;7.03;;;3.72;;
11655;SDS011;5884;43.618;1.438;2022-09-01T16:36:02;9.23;;;4.40;;
11655;SDS011;5884;43.618;1.438;2022-09-01T16:38:44;6.32;;;3.78;;
11655;SDS011;5884;43.618;1.438;2022-09-01T16:41:19;6.70;;;4.18;;
11655;SDS011;5884;43.618;1.438;2022-09-01T16:44:09;5.68;;;3.75;;
11655;SDS011;5884;43.618;1.438;2022-09-01T16:46:51;8.07;;;3.90;;
11655;SDS011;5884;43.618;1.438;2022-09-01T16:49:29;9.02;;;3.85;;
11655;SDS011;5884;43.618;1.438;2022-09-01T16:52:05;5.32;;;3.30;;
11655;SDS011;5884;43.618;1.438;2022-09-01T16:54:47;5.22;;;3.63;;
11655;SDS011;5884;43.618;1.438;2022-09-01T16:57:32;8.13;;;3.88;;
11655;SDS011;5884;43.618;1.438;2022-09-01T17:00:09;6.13;;;3.33;;
11655;SDS011;5884;43.618;1.438;2022-09-01T17:02:42;5.32;;;3.58;;
11655;SDS011;5884;43.618;1.438;2022-09-01T17:05:20;5.07;;;3.50;;
11655;SDS011;5884;43.618;1.438;2022-09-01T17:07:56;5.25;;;3.58;;
11655;SDS011;5884;43.618;1.438;2022-09-01T17:10:35;5.40;;;3.42;;
11655;SDS011;5884;43.618;1.438;2022-09-01T17:13:11;5.43;;;2.97;;
11655;SDS011;5884;43.618;1.438;2022-09-01T17:15:51;6.57;;;3.50;;
11655;SDS011;5884;43.618;1.438;2022-09-01T17:18:29;8.27;;;3.78;;
11655;SDS011;5884;43.618;1.438;2022-09-01T17:21:07;5.28;;;3.30;;
11655;SDS011;5884;43.618;1.438;2022-09-01T17:23:40;4.28;;;3.35;;
11655;SDS011;5884;43.618;1.438;2022-09-01T17:26:18;7.38;;;3.30;;
11655;SDS011;5884;43.618;1.438;2022-09-01T17:28:53;4.47;;;3.22;;
11655;SDS011;5884;43.618;1.438;2022-09-01T17:31:30;4.60;;;3.40;;
11655;SDS011;5884;43.618;1.438;2022-09-01T17:34:21;7.50;;;4.13;;
11655;SDS011;5884;43.618;1.438;2022-09-01T17:37:02;5.75;;;3.65;;
11655;SDS011;5884;43.618;1.438;2022-09-01T17:39:42;5.32;;;3.55;;
11655;SDS011;5884;43.618;1.438;2022-09-01T17:42:23;5.65;;;3.42;;
11655;SDS011;5884;43.618;1.438;2022-09-01T17:45:03;6.85;;;4.03;;
11655;SDS011;5884;43.618;1.438;2022-09-01T17:47:42;9.55;;;4.03;;
11655;SDS011;5884;43.618;1.438;2022-09-01T17:50:22;6.65;;;4.05;;
11655;SDS011;5884;43.618;1.438;2022-09-01T17:53:02;5.93;;;4.35;;
11655;SDS011;5884;43.618;1.438;2022-09-01T17:55:44;13.02;;;4.30;;
11655;SDS011;5884;43.618;1.438;2022-09-01T17:58:20;5.40;;;3.87;;
11655;SDS011;5884;43.618;1.438;2022-09-01T18:01:03;7.15;;;4.40;;
11655;SDS011;5884;43.618;1.438;2022-09-01T18:03:42;5.35;;;3.95;;
11655;SDS011;5884;43.618;1.438;2022-09-01T18:07:00;7.40;;;4.55;;
11655;SDS011;5884;43.618;1.438;2022-09-01T18:09:39;5.43;;;4.22;;
11655;SDS011;5884;43.618;1.438;2022-09-01T18:12:12;9.97;;;4.77;;
11655;SDS011;5884;43.618;1.438;2022-09-01T18:14:47;7.30;;;4.50;;
11655;SDS011;5884;43.618;1.438;2022-09-01T18:17:24;6.07;;;4.10;;
11655;SDS011;5884;43.618;1.438;2022-09-01T18:19:58;5.47;;;3.92;;
11655;SDS011;5884;43.618;1.438;2022-09-01T18:22:36;6.77;;;4.00;;
11655;SDS011;5884;43.618;1.438;2022-09-01T18:25:13;7.90;;;4.80;;
11655;SDS011;5884;43.618;1.438;2022-09-01T18:27:45;9.23;;;4.63;;
11655;SDS011;5884;43.618;1.438;2022-09-01T18:30:14;10.60;;;4.63;;
11655;SDS011;5884;43.618;1.438;2022-09-01T18:32:46;9.40;;;4.77;;
11655;SDS011;5884;43.618;1.438;2022-09-01T18:35:26;13.20;;;5.43;;
11655;SDS011;5884;43.618;1.438;2022-09-01T18:38:08;13.33;;;6.40;;
11655;SDS011;5884;43.618;1.438;2022-09-01T18:40:54;12.37;;;7.70;;
11655;SDS011;5884;43.618;1.438;2022-09-01T18:43:34;10.90;;;7.37;;
11655;SDS011;5884;43.618;1.438;2022-09-01T18:46:06;12.00;;;5.97;;
11655;SDS011;5884;43.618;1.438;2022-09-01T18:48:47;10.30;;;6.33;;
11655;SDS011;5884;43.618;1.438;2022-09-01T18:51:29;12.43;;;4.77;;
11655;SDS011;5884;43.618;1.438;2022-09-01T18:54:12;8.80;;;4.70;;
11655;SDS011;5884;43.618;1.438;2022-09-01T18:56:48;10.77;;;5.03;;
11655;SDS011;5884;43.618;1.438;2022-09-01T19:02:34;7.93;;;4.83;;
11655;SDS011;5884;43.618;1.438;2022-09-01T19:05:18;5.17;;;4.67;;
11655;SDS011;5884;43.618;1.438;2022-09-01T19:07:59;6.63;;;4.70;;
11655;SDS011;5884;43.618;1.438;2022-09-01T19:10:34;7.77;;;5.37;;
11655;SDS011;5884;43.618;1.438;2022-09-01T19:13:12;9.83;;;5.10;;
11655;SDS011;5884;43.618;1.438;2022-09-01T19:16:02;9.03;;;5.40;;
11655;SDS011;5884;43.618;1.438;2022-09-01T19:18:40;11.30;;;5.07;;
11655;SDS011;5884;43.618;1.438;2022-09-01T19:21:15;7.50;;;4.93;;
11655;SDS011;5884;43.618;1.438;2022-09-01T19:23:49;8.77;;;5.03;;
11655;SDS011;5884;43.618;1.438;2022-09-01T19:26:24;8.97;;;4.83;;
11655;SDS011;5884;43.618;1.438;2022-09-01T19:28:56;7.87;;;5.33;;
11655;SDS011;5884;43.618;1.438;2022-09-01T19:31:26;6.47;;;5.20;;
11655;SDS011;5884;43.618;1.438;2022-09-01T19:33:59;9.20;;;5.60;;
11655;SDS011;5884;43.618;1.438;2022-09-01T19:36:31;10.03;;;5.47;;
11655;SDS011;5884;43.618;1.438;2022-09-01T19:39:04;8.20;;;4.90;;
11655;SDS011;5884;43.618;1.438;2022-09-01T19:41:35;8.43;;;5.00;;
11655;SDS011;5884;43.618;1.438;2022-09-01T19:44:10;8.77;;;5.13;;
11655;SDS011;5884;43.618;1.438;2022-09-01T19:46:47;10.87;;;5.03;;
11655;SDS011;5884;43.618;1.438;2022-09-01T19:49:21;7.37;;;5.23;;
11655;SDS011;5884;43.618;1.438;2022-09-01T19:52:00;10.23;;;5.77;;
11655;SDS011;5884;43.618;1.438;2022-09-01T19:54:36;10.40;;;5.70;;
11655;SDS011;5884;43.618;1.438;2022-09-01T19:57:12;9.30;;;6.03;;
11655;SDS011;5884;43.618;1.438;2022-09-01T19:59:52;8.57;;;6.13;;
11655;SDS011;5884;43.618;1.438;2022-09-01T20:02:28;11.80;;;6.23;;
11655;SDS011;5884;43.618;1.438;2022-09-01T20:05:02;13.17;;;6.67;;
11655;SDS011;5884;43.618;1.438;2022-09-01T20:07:37;17.17;;;7.00;;
11655;SDS011;5884;43.618;1.438;2022-09-01T20:10:15;11.67;;;6.73;;
11655;SDS011;5884;43.618;1.438;2022-09-01T20:13:05;8.10;;;6.03;;
11655;SDS011;5884;43.618;1.438;2022-09-01T20:15:52;9.13;;;5.87;;
11655;SDS011;5884;43.618;1.438;2022-09-01T20:18:26;7.97;;;5.53;;
11655;SDS011;5884;43.618;1.438;2022-09-01T20:20:58;10.17;;;5.30;;
11655;SDS011;5884;43.618;1.438;2022-09-01T20:23:31;8.90;;;5.83;;
11655;SDS011;5884;43.618;1.438;2022-09-01T20:26:08;9.60;;;5.27;;
11655;SDS011;5884;43.618;1.438;2022-09-01T20:28:44;10.47;;;5.73;;
11655;SDS011;5884;43.618;1.438;2022-09-01T20:31:20;8.50;;;5.80;;
11655;SDS011;5884;43.618;1.438;2022-09-01T20:33:53;8.30;;;5.40;;
11655;SDS011;5884;43.618;1.438;2022-09-01T20:36:28;9.17;;;5.63;;
11655;SDS011;5884;43.618;1.438;2022-09-01T20:39:02;8.97;;;5.20;;
11655;SDS011;5884;43.618;1.438;2022-09-01T20:41:53;11.13;;;5.80;;
11655;SDS011;5884;43.618;1.438;2022-09-01T20:44:27;7.63;;;5.57;;